Time;durP1;ratioP1;P1;durP2;ratioP2;P2;SDS_P1;SDS_P2;PMS_P1;PMS_P2;Temp;Humidity;BMP_temperature;BMP_pressure;BME280_temperature;BME280_humidity;BME280_pressure;Samples;Min_cycle;Max_cycle;Signal;HPM_P1;HPM_P2
2023/04/06 00:03:35;;;;;;;14.85;7.25;;;0.40;99.90;;;;;;7286533;32;20518;-56
2023/04/06 00:07:37;;;;;;;13.75;7.60;;;0.40;99.90;;;;;;7281379;32;20258;-56
2023/04/06 00:11:39;;;;;;;15.93;7.40;;;0.40;99.90;;;;;;7280751;32;20122;-55
2023/04/06 00:15:40;;;;;;;12.07;7.00;;;0.40;99.90;;;;;;7278589;32;20196;-55
2023/04/06 00:19:42;;;;;;;14.82;7.53;;;0.30;99.90;;;;;;7277692;32;20156;-56
2023/04/06 00:23:44;;;;;;;11.15;7.32;;;0.30;99.90;;;;;;7278467;32;20532;-55
2023/04/06 00:27:46;;;;;;;11.20;7.15;;;0.20;99.90;;;;;;7279822;32;20242;-56
2023/04/06 00:31:48;;;;;;;13.27;6.75;;;0.30;99.90;;;;;;7280912;32;20177;-56
2023/04/06 00:35:50;;;;;;;11.15;7.07;;;0.20;99.90;;;;;;7270016;32;20109;-56
2023/04/06 00:39:52;;;;;;;14.05;7.78;;;0.20;99.90;;;;;;7285002;32;20225;-56
2023/04/06 00:43:54;;;;;;;11.20;7.12;;;0.30;99.90;;;;;;7274682;32;20129;-55
2023/04/06 00:47:56;;;;;;;13.68;7.93;;;0.20;99.90;;;;;;7281547;32;20140;-55
2023/04/06 00:51:58;;;;;;;10.57;6.90;;;0.20;99.90;;;;;;7279572;32;20120;-56
2023/04/06 00:56:00;;;;;;;12.35;7.35;;;0.20;99.90;;;;;;7270541;32;20155;-55
2023/04/06 01:00:02;;;;;;;11.23;7.75;;;0.10;99.90;;;;;;7281176;32;20199;-56
2023/04/06 01:04:05;;;;;;;16.67;8.48;;;0.10;99.90;;;;;;7279484;32;20107;-55
2023/04/06 01:08:07;;;;;;;12.07;7.90;;;0.00;99.90;;;;;;7273777;32;20234;-56
2023/04/06 01:12:09;;;;;;;14.32;7.55;;;0.00;99.90;;;;;;7277715;32;20297;-56
2023/04/06 01:16:11;;;;;;;12.48;7.30;;;0.00;99.90;;;;;;7278156;32;20258;-56
2023/04/06 01:20:14;;;;;;;11.30;6.95;;;0.00;99.90;;;;;;7282500;32;20250;-55
2023/04/06 01:24:16;;;;;;;13.23;7.90;;;0.00;99.90;;;;;;7285523;32;20444;-55
2023/04/06 01:28:17;;;;;;;12.27;8.07;;;0.00;99.90;;;;;;7278832;32;20142;-56
2023/04/06 01:32:20;;;;;;;11.52;7.75;;;0.00;99.90;;;;;;7279968;32;20206;-55
2023/04/06 01:36:22;;;;;;;13.60;7.90;;;0.00;99.90;;;;;;7281104;32;20208;-55
2023/04/06 01:40:24;;;;;;;12.15;7.93;;;0.00;99.90;;;;;;7283374;32;20177;-55
2023/04/06 01:44:26;;;;;;;14.65;8.07;;;0.00;99.90;;;;;;7281241;32;20130;-56
2023/04/06 01:48:27;;;;;;;12.77;7.97;;;-0.10;99.90;;;;;;7276280;32;20144;-56
2023/04/06 01:52:29;;;;;;;12.43;7.82;;;-0.20;99.90;;;;;;7282962;32;20202;-55
2023/04/06 01:56:31;;;;;;;14.30;8.77;;;-0.20;99.90;;;;;;7284640;32;20234;-55
2023/04/06 02:00:33;;;;;;;10.45;7.50;;;0.00;99.90;;;;;;7284152;32;21044;-55
2023/04/06 02:04:35;;;;;;;13.38;7.95;;;-0.20;99.90;;;;;;7275523;32;20103;-55
2023/04/06 02:08:36;;;;;;;12.45;7.95;;;-0.20;99.90;;;;;;7286863;32;20165;-55
2023/04/06 02:12:39;;;;;;;13.35;7.53;;;-0.20;99.90;;;;;;7278514;32;20166;-56
2023/04/06 02:16:41;;;;;;;12.63;7.93;;;-0.20;99.90;;;;;;7276399;32;20210;-55
2023/04/06 02:20:42;;;;;;;14.25;8.35;;;-0.10;99.90;;;;;;7275346;32;20425;-56
2023/04/06 02:24:45;;;;;;;12.45;8.07;;;-0.20;99.90;;;;;;7279543;32;20204;-55
2023/04/06 02:28:47;;;;;;;14.13;8.45;;;-0.20;99.90;;;;;;7281300;32;20097;-55
2023/04/06 02:32:48;;;;;;;10.98;7.22;;;-0.20;99.90;;;;;;7281430;32;20099;-56
2023/04/06 02:36:50;;;;;;;12.73;7.82;;;-0.30;99.90;;;;;;7279383;32;20454;-56
2023/04/06 02:40:52;;;;;;;16.05;8.52;;;-0.30;99.90;;;;;;7283022;32;20217;-55
2023/04/06 02:44:54;;;;;;;12.60;8.85;;;-0.30;99.90;;;;;;7280943;32;20183;-55
2023/04/06 02:48:56;;;;;;;12.93;8.20;;;-0.30;99.90;;;;;;7278693;32;20174;-55
2023/04/06 02:52:57;;;;;;;16.27;8.82;;;-0.40;99.90;;;;;;7284675;32;20165;-56
2023/04/06 02:56:59;;;;;;;18.05;9.50;;;-0.40;99.90;;;;;;7282629;32;20470;-55
2023/04/06 03:01:01;;;;;;;16.30;8.93;;;-0.40;99.90;;;;;;7281809;32;20537;-55
2023/04/06 03:05:03;;;;;;;14.13;8.68;;;-0.40;99.90;;;;;;7275280;32;20203;-55
2023/04/06 03:09:06;;;;;;;16.70;9.30;;;-0.40;99.90;;;;;;7277468;32;20622;-55
2023/04/06 03:13:08;;;;;;;15.48;9.35;;;-0.40;99.90;;;;;;7278281;32;20379;-56
2023/04/06 03:17:10;;;;;;;15.15;9.32;;;-0.40;99.90;;;;;;7275488;32;20615;-55
2023/04/06 03:21:12;;;;;;;13.85;9.20;;;-0.40;99.90;;;;;;7278959;32;20162;-55
2023/04/06 03:25:15;;;;;;;15.82;9.95;;;-0.40;99.90;;;;;;7278126;32;20552;-55
2023/04/06 03:29:16;;;;;;;16.58;9.88;;;-0.40;99.90;;;;;;7281245;32;20173;-56
2023/04/06 03:33:18;;;;;;;15.50;10.25;;;-0.50;99.90;;;;;;7280524;32;20124;-55
2023/04/06 03:37:20;;;;;;;15.88;9.20;;;-0.50;99.90;;;;;;7284659;32;20262;-55
2023/04/06 03:41:22;;;;;;;17.83;9.30;;;-0.50;99.90;;;;;;7274863;32;20191;-55
2023/04/06 03:45:24;;;;;;;16.02;9.82;;;-0.50;99.90;;;;;;7272893;32;20771;-55
2023/04/06 03:49:25;;;;;;;16.48;9.52;;;-0.50;99.90;;;;;;7273857;32;20296;-55
2023/04/06 03:53:27;;;;;;;17.02;8.50;;;-0.60;99.90;;;;;;7277738;32;20099;-55
2023/04/06 03:57:29;;;;;;;19.23;9.95;;;-0.50;99.90;;;;;;7279817;32;20472;-55
2023/04/06 04:01:31;;;;;;;18.23;9.40;;;-0.60;99.90;;;;;;7277939;32;20482;-55
2023/04/06 04:05:33;;;;;;;13.70;9.30;;;-0.50;99.90;;;;;;7261895;32;20187;-56
2023/04/06 04:09:35;;;;;;;17.02;9.68;;;-0.60;99.90;;;;;;7287690;32;20127;-55
2023/04/06 04:13:37;;;;;;;16.45;9.80;;;-0.60;99.90;;;;;;7277002;32;20528;-55
2023/04/06 04:17:38;;;;;;;13.98;9.02;;;-0.60;99.90;;;;;;7277645;32;20238;-55
2023/04/06 04:21:45;;;;;;;17.55;9.45;;;-0.70;99.90;;;;;;7284227;32;20118;-55
2023/04/06 04:25:48;;;;;;;16.30;8.88;;;-0.60;99.90;;;;;;7285194;32;20125;-55
2023/04/06 04:29:50;;;;;;;20.77;9.73;;;-0.60;99.90;;;;;;7281504;32;20556;-55
2023/04/06 04:33:53;;;;;;;17.08;9.45;;;-0.70;99.90;;;;;;7280983;32;20545;-55
2023/04/06 04:37:56;;;;;;;13.90;8.60;;;-0.60;99.90;;;;;;7277105;32;20997;-55
2023/04/06 04:41:57;;;;;;;13.45;8.40;;;-0.70;99.90;;;;;;7281437;32;20172;-55
2023/04/06 04:45:59;;;;;;;15.20;8.80;;;-0.70;99.90;;;;;;7277720;32;20248;-55
2023/04/06 04:50:01;;;;;;;16.08;9.32;;;-0.60;99.90;;;;;;7282868;32;20203;-55
2023/04/06 04:54:03;;;;;;;14.20;9.95;;;-0.70;99.90;;;;;;7285952;32;20292;-55
2023/04/06 04:58:05;;;;;;;17.05;10.45;;;-0.70;99.90;;;;;;7282064;32;20104;-55
2023/04/06 05:02:06;;;;;;;13.57;9.50;;;-0.70;99.90;;;;;;7279707;32;20305;-56
2023/04/06 05:06:08;;;;;;;17.50;9.73;;;-0.70;99.90;;;;;;7273050;32;20521;-57
2023/04/06 05:10:14;;;;;;;15.60;10.00;;;-0.70;99.90;;;;;;7275439;32;20458;-57
2023/04/06 05:14:17;;;;;;;24.33;13.45;;;-0.60;99.90;;;;;;7265309;32;20167;-56
2023/04/06 05:18:18;;;;;;;17.75;10.20;;;-0.60;99.90;;;;;;7276963;32;20507;-57
2023/04/06 05:22:20;;;;;;;16.12;9.60;;;-0.50;99.90;;;;;;7283017;32;20100;-57
2023/04/06 05:26:22;;;;;;;20.15;10.57;;;-0.50;99.90;;;;;;7279975;32;20122;-57
2023/04/06 05:30:24;;;;;;;14.50;9.15;;;-0.50;99.90;;;;;;7276193;32;20180;-57
2023/04/06 05:34:26;;;;;;;15.10;8.88;;;-0.40;99.90;;;;;;7274851;32;20140;-55
2023/04/06 05:38:28;;;;;;;13.20;8.70;;;-0.30;99.90;;;;;;7271782;32;20210;-57
2023/04/06 05:42:37;;;;;;;13.52;9.00;;;-0.30;99.90;;;;;;7277410;32;20180;-59
2023/04/06 05:46:39;;;;;;;13.48;9.05;;;-0.20;99.90;;;;;;7277181;32;20127;-56
2023/04/06 05:50:41;;;;;;;18.27;8.90;;;-0.20;99.90;;;;;;7268383;32;20124;-56
2023/04/06 05:54:43;;;;;;;15.15;9.30;;;-0.10;99.90;;;;;;7274879;32;20781;-56
2023/04/06 05:58:45;;;;;;;15.20;8.70;;;0.00;99.90;;;;;;7280952;32;20111;-57
2023/04/06 06:02:47;;;;;;;14.07;8.68;;;0.10;99.90;;;;;;7279064;32;20521;-56
2023/04/06 06:06:49;;;;;;;12.65;8.15;;;0.10;99.90;;;;;;7278984;32;20374;-57
2023/04/06 06:10:51;;;;;;;14.43;8.48;;;0.20;99.90;;;;;;7286016;32;20211;-57
2023/04/06 06:14:53;;;;;;;13.88;8.50;;;0.40;99.90;;;;;;7279741;32;20184;-57
2023/04/06 06:18:55;;;;;;;16.50;7.95;;;0.50;99.90;;;;;;7277944;32;20203;-57
2023/04/06 06:22:57;;;;;;;18.87;8.40;;;0.70;99.90;;;;;;7273134;32;20126;-57
2023/04/06 06:26:59;;;;;;;12.75;7.00;;;0.90;99.90;;;;;;7278504;32;20092;-57
2023/04/06 06:31:01;;;;;;;10.77;6.50;;;1.30;99.90;;;;;;7270630;32;20112;-57
2023/04/06 06:35:03;;;;;;;11.32;6.30;;;1.70;99.90;;;;;;7277242;32;20420;-57
2023/04/06 06:39:05;;;;;;;11.95;6.65;;;2.10;99.90;;;;;;7274842;32;20452;-59
2023/04/06 06:43:07;;;;;;;10.25;5.93;;;2.60;99.90;;;;;;7277961;32;20214;-57
2023/04/06 06:47:09;;;;;;;9.25;5.80;;;2.80;99.90;;;;;;7280822;32;20187;-57
2023/04/06 06:51:11;;;;;;;11.50;6.15;;;3.20;99.90;;;;;;7276361;32;20131;-57
2023/04/06 06:55:13;;;;;;;8.75;5.60;;;3.60;99.90;;;;;;7279316;32;20287;-57
2023/04/06 06:59:16;;;;;;;9.50;5.40;;;3.90;99.90;;;;;;7283823;32;20110;-55
2023/04/06 07:03:17;;;;;;;10.93;5.50;;;4.30;99.90;;;;;;7276906;32;20221;-56
2023/04/06 07:07:19;;;;;;;8.77;5.43;;;4.50;99.90;;;;;;7277173;32;20124;-56
2023/04/06 07:11:21;;;;;;;9.40;5.50;;;4.70;99.90;;;;;;7275546;32;20159;-56
2023/04/06 07:15:23;;;;;;;8.27;6.28;;;4.80;99.90;;;;;;7283034;32;20187;-57
2023/04/06 07:19:25;;;;;;;12.68;6.55;;;5.00;99.90;;;;;;7267736;32;20108;-58
2023/04/06 07:23:26;;;;;;;11.40;6.18;;;5.10;99.90;;;;;;7276599;32;20116;-56
2023/04/06 07:27:28;;;;;;;10.85;6.30;;;5.30;99.90;;;;;;7282306;32;20122;-57
2023/04/06 07:31:30;;;;;;;9.15;6.07;;;5.50;99.90;;;;;;7272805;32;20126;-55
2023/04/06 07:35:32;;;;;;;9.73;5.95;;;5.80;99.90;;;;;;7284415;32;20253;-55
2023/04/06 07:39:34;;;;;;;11.63;6.30;;;6.30;99.90;;;;;;7281276;32;20123;-58
2023/04/06 07:43:36;;;;;;;10.90;6.03;;;6.40;99.90;;;;;;7282537;32;20230;-56
2023/04/06 07:47:38;;;;;;;11.93;6.18;;;6.90;99.90;;;;;;7282504;32;20103;-57
2023/04/06 07:51:40;;;;;;;11.68;5.97;;;7.30;99.90;;;;;;7291009;32;20132;-57
2023/04/06 07:55:42;;;;;;;8.50;6.07;;;7.50;99.90;;;;;;7277468;32;20223;-57
2023/04/06 07:59:43;;;;;;;10.63;6.20;;;7.90;99.90;;;;;;7279571;32;20242;-57
2023/04/06 08:03:46;;;;;;;10.20;6.72;;;8.50;99.90;;;;;;7283223;32;20144;-57
2023/04/06 08:07:48;;;;;;;9.75;6.30;;;9.00;99.90;;;;;;7277651;32;20258;-59
2023/04/06 08:11:50;;;;;;;10.88;6.97;;;9.90;99.90;;;;;;7269972;32;20666;-57
2023/04/06 08:15:53;;;;;;;12.60;7.12;;;10.60;98.40;;;;;;7279984;32;20227;-57
2023/04/06 08:19:55;;;;;;;10.73;7.85;;;10.70;94.70;;;;;;7273363;32;20249;-57
2023/04/06 08:23:57;;;;;;;10.25;7.25;;;10.80;94.40;;;;;;7285522;32;20295;-56
2023/04/06 08:27:59;;;;;;;10.57;7.68;;;10.90;95.10;;;;;;7282032;32;20206;-57
2023/04/06 08:32:04;;;;;;;11.70;7.20;;;11.20;94.20;;;;;;7276563;32;20411;-56
2023/04/06 08:36:11;;;;;;;11.82;7.28;;;11.10;91.90;;;;;;7277515;32;20805;-59
2023/04/06 08:40:14;;;;;;;10.88;6.78;;;11.50;92.80;;;;;;7260690;32;20676;-56
2023/04/06 08:44:16;;;;;;;11.50;7.37;;;12.10;93.50;;;;;;7285299;32;20612;-56
2023/04/06 08:48:19;;;;;;;11.77;8.57;;;12.20;91.20;;;;;;7279799;32;20228;-57
2023/04/06 08:52:21;;;;;;;14.87;8.05;;;12.40;90.40;;;;;;7277542;32;20152;-56
2023/04/06 08:56:23;;;;;;;11.75;7.45;;;12.30;87.10;;;;;;7253118;32;20119;-60
2023/04/06 09:00:26;;;;;;;10.57;7.70;;;12.50;90.90;;;;;;7274043;32;20190;-56
2023/04/06 09:04:27;;;;;;;14.90;7.57;;;12.90;91.40;;;;;;7270378;32;21178;-58
2023/04/06 09:08:29;;;;;;;11.85;7.40;;;13.10;84.70;;;;;;7287059;32;20100;-56
2023/04/06 09:12:32;;;;;;;13.23;8.40;;;13.10;87.10;;;;;;7283335;32;20250;-57
2023/04/06 09:16:40;;;;;;;12.05;8.07;;;13.30;80.40;;;;;;7280559;32;20253;-59
2023/04/06 09:20:42;;;;;;;15.10;8.98;;;13.40;78.40;;;;;;7282420;32;20552;-56
2023/04/06 09:24:54;;;;;;;12.90;8.82;;;13.60;77.30;;;;;;7284240;32;20175;-58
2023/04/06 09:29:01;;;;;;;13.82;9.20;;;14.10;81.80;;;;;;7281593;32;20534;-58
2023/04/06 09:33:03;;;;;;;16.45;9.98;;;13.90;74.80;;;;;;7279432;32;21461;-57
2023/04/06 09:37:14;;;;;;;16.77;10.70;;;13.90;73.50;;;;;;7281785;32;20114;-57
2023/04/06 09:41:27;;;;;;;14.93;10.40;;;14.30;70.80;;;;;;7278491;32;20158;-58
2023/04/06 09:45:30;;;;;;;13.88;10.40;;;13.90;72.10;;;;;;7284708;32;20214;-58
2023/04/06 09:49:33;;;;;;;15.90;10.25;;;13.80;79.30;;;;;;7279070;32;20852;-57
2023/04/06 09:53:38;;;;;;;15.15;10.40;;;14.00;75.80;;;;;;7279160;32;20217;-56
2023/04/06 09:57:47;;;;;;;14.68;10.82;;;14.40;73.40;;;;;;7278768;32;20469;-57
2023/04/06 10:01:51;;;;;;;20.23;10.38;;;14.20;72.90;;;;;;7280261;32;20731;-58
2023/04/06 10:06:03;;;;;;;15.77;9.82;;;13.80;71.60;;;;;;7284807;32;20261;-57
2023/04/06 10:10:05;;;;;;;16.42;9.52;;;14.60;74.70;;;;;;7269318;32;20234;-56
2023/04/06 10:14:07;;;;;;;15.38;10.60;;;16.10;74.00;;;;;;7279492;32;20298;-58
2023/04/06 10:18:10;;;;;;;16.52;11.00;;;17.20;70.20;;;;;;7283337;32;20119;-58
2023/04/06 10:22:24;;;;;;;17.23;10.80;;;17.70;62.40;;;;;;7281929;32;20601;-58
2023/04/06 10:26:26;;;;;;;16.83;11.88;;;17.70;62.00;;;;;;7280366;32;20179;-61
2023/04/06 10:30:28;;;;;;;17.12;10.90;;;17.70;64.60;;;;;;7277149;32;20123;-61
2023/04/06 10:34:36;;;;;;;18.73;12.05;;;17.60;60.60;;;;;;7273662;32;21152;-60
2023/04/06 10:38:39;;;;;;;15.93;10.60;;;17.20;63.10;;;;;;7287176;32;20226;-59
2023/04/06 10:42:42;;;;;;;16.33;11.05;;;16.60;59.80;;;;;;7282176;32;20780;-60
2023/04/06 10:46:56;;;;;;;16.12;10.80;;;16.20;60.20;;;;;;7274013;32;20191;-60
2023/04/06 10:50:58;;;;;;;18.52;11.27;;;15.90;63.70;;;;;;7281204;32;20130;-56
2023/04/06 10:55:01;;;;;;;17.50;11.60;;;15.50;63.10;;;;;;7278313;32;20114;-58
2023/04/06 10:59:02;;;;;;;18.33;12.25;;;15.50;64.80;;;;;;7281315;32;20229;-59
2023/04/06 11:03:04;;;;;;;20.42;12.13;;;15.00;66.30;;;;;;7277664;32;20205;-57
2023/04/06 11:07:07;;;;;;;19.90;12.00;;;14.80;67.00;;;;;;7272641;32;20436;-57
2023/04/06 11:11:15;;;;;;;19.92;11.68;;;14.90;68.30;;;;;;7278807;32;20609;-55
2023/04/06 11:15:17;;;;;;;20.42;11.93;;;15.00;67.10;;;;;;7275822;32;20140;-57
2023/04/06 11:19:19;;;;;;;20.12;12.48;;;14.50;65.40;;;;;;7272720;32;20249;-58
2023/04/06 11:23:27;;;;;;;18.60;12.25;;;14.50;69.00;;;;;;7281199;32;20157;-56
2023/04/06 11:27:31;;;;;;;20.62;12.25;;;15.00;68.30;;;;;;7277149;32;20203;-57
2023/04/06 11:31:46;;;;;;;23.92;12.00;;;15.20;71.30;;;;;;7266769;32;20191;-56
2023/04/06 11:35:48;;;;;;;18.00;12.27;;;14.90;67.30;;;;;;7273542;32;20092;-56
2023/04/06 11:39:54;;;;;;;19.83;12.20;;;15.10;69.30;;;;;;7277163;32;20120;-57
2023/04/06 11:43:56;;;;;;;19.37;11.90;;;14.70;72.10;;;;;;7272047;32;20210;-56
2023/04/06 11:48:00;;;;;;;20.23;12.77;;;14.60;73.40;;;;;;7276861;32;20275;-56
2023/04/06 11:52:02;;;;;;;19.00;12.57;;;14.10;74.10;;;;;;7273205;32;20407;-60
2023/04/06 11:56:04;;;;;;;19.05;12.52;;;14.20;76.90;;;;;;7258862;32;20261;-56
2023/04/06 12:00:08;;;;;;;20.98;12.95;;;14.20;76.50;;;;;;7277019;32;20157;-56
2023/04/06 12:04:10;;;;;;;19.65;12.63;;;13.80;77.20;;;;;;7281898;32;20171;-55
2023/04/06 12:08:11;;;;;;;21.17;13.65;;;13.90;79.40;;;;;;7266059;32;20474;-56
2023/04/06 12:12:13;;;;;;;18.52;11.38;;;14.20;77.40;;;;;;7285777;32;20531;-59
2023/04/06 12:16:15;;;;;;;19.10;12.57;;;14.30;80.60;;;;;;7285015;32;20611;-56
2023/04/06 12:20:17;;;;;;;16.02;11.88;;;14.20;77.50;;;;;;7289632;32;20176;-58
2023/04/06 12:24:28;;;;;;;19.73;12.55;;;14.30;81.40;;;;;;7284205;32;20219;-58
2023/04/06 12:28:30;;;;;;;18.92;11.98;;;14.20;78.80;;;;;;7280785;32;20103;-57
2023/04/06 12:32:32;;;;;;;21.45;12.13;;;14.10;79.40;;;;;;7285770;32;20309;-59
2023/04/06 12:36:34;;;;;;;21.37;11.85;;;14.00;81.20;;;;;;7274068;32;20185;-55
2023/04/06 12:40:40;;;;;;;17.42;10.70;;;13.50;82.20;;;;;;7279857;32;20785;-57
2023/04/06 12:44:42;;;;;;;17.15;10.18;;;13.30;83.90;;;;;;7269660;32;20103;-57
2023/04/06 12:48:44;;;;;;;20.27;10.13;;;13.40;87.20;;;;;;7275598;32;20178;-56
2023/04/06 12:52:47;;;;;;;13.75;9.25;;;13.40;84.30;;;;;;7281809;32;20136;-57
2023/04/06 12:56:48;;;;;;;16.60;10.27;;;13.50;88.40;;;;;;7279900;32;20131;-57
2023/04/06 13:00:50;;;;;;;16.58;10.65;;;13.50;84.60;;;;;;7282550;32;20211;-57
2023/04/06 13:04:52;;;;;;;15.57;10.05;;;13.40;85.10;;;;;;7280517;32;20100;-56
2023/04/06 13:08:55;;;;;;;14.68;9.07;;;13.50;87.00;;;;;;7273491;32;20112;-64
2023/04/06 13:12:57;;;;;;;16.33;10.70;;;13.50;87.60;;;;;;7274242;32;20625;-55
2023/04/06 13:17:00;;;;;;;15.48;9.95;;;13.30;86.40;;;;;;7276708;32;20103;-55
2023/04/06 13:21:02;;;;;;;14.63;8.95;;;13.20;86.60;;;;;;7277415;32;20092;-59
2023/04/06 13:25:04;;;;;;;12.68;8.18;;;13.10;88.00;;;;;;7267836;32;20120;-57
2023/04/06 13:29:06;;;;;;;14.13;8.48;;;13.00;90.60;;;;;;7281314;32;20234;-57
2023/04/06 13:33:08;;;;;;;12.02;8.20;;;13.00;90.00;;;;;;7281325;32;20179;-56
2023/04/06 13:37:13;;;;;;;13.32;8.20;;;13.00;90.90;;;;;;7276442;32;20107;-58
2023/04/06 13:41:22;;;;;;;11.40;8.50;;;12.70;91.00;;;;;;7280230;32;20289;-57
2023/04/06 13:45:24;;;;;;;12.13;7.43;;;12.30;92.90;;;;;;7278917;32;20863;-56
2023/04/06 13:49:26;;;;;;;12.07;7.97;;;12.30;93.00;;;;;;7278799;32;20499;-56
2023/04/06 13:53:28;;;;;;;10.98;7.97;;;12.30;95.70;;;;;;7278732;32;20119;-57
2023/04/06 13:57:30;;;;;;;10.18;7.43;;;12.40;98.10;;;;;;7284908;32;20123;-55
2023/04/06 14:01:32;;;;;;;11.85;7.05;;;12.40;99.60;;;;;;7283292;32;20289;-58
2023/04/06 14:05:33;;;;;;;9.68;7.15;;;12.30;99.90;;;;;;7279208;32;20518;-57
2023/04/06 14:09:35;;;;;;;13.05;7.30;;;12.30;99.90;;;;;;7271121;32;20244;-57
2023/04/06 14:13:37;;;;;;;10.02;7.00;;;12.40;99.90;;;;;;7276680;32;20120;-56
2023/04/06 14:17:40;;;;;;;8.32;6.45;;;12.20;99.90;;;;;;7265094;32;20629;-55
2023/04/06 14:21:43;;;;;;;13.18;6.87;;;12.10;99.90;;;;;;7268802;32;20115;-57
2023/04/06 14:25:45;;;;;;;11.00;7.25;;;12.00;99.90;;;;;;7272087;32;20284;-56
2023/04/06 14:29:47;;;;;;;10.70;6.65;;;12.00;99.90;;;;;;7273154;32;20582;-56
2023/04/06 14:33:49;;;;;;;9.90;7.00;;;11.90;99.90;;;;;;7274047;32;20143;-56
2023/04/06 14:37:51;;;;;;;8.75;6.15;;;11.80;99.90;;;;;;7277064;32;20209;-55
2023/04/06 14:41:53;;;;;;;10.90;6.50;;;11.80;99.90;;;;;;7279380;32;20096;-55
2023/04/06 14:45:55;;;;;;;8.40;5.57;;;11.50;99.90;;;;;;7269487;32;20205;-55
2023/04/06 14:49:57;;;;;;;8.80;6.35;;;11.50;99.90;;;;;;7274179;32;20558;-57
2023/04/06 14:54:00;;;;;;;9.88;7.03;;;11.50;99.90;;;;;;7276510;32;20194;-57
2023/04/06 14:58:02;;;;;;;10.80;6.65;;;11.40;99.90;;;;;;7274906;32;20703;-55
2023/04/06 15:02:04;;;;;;;13.70;7.80;;;11.00;99.90;;;;;;7281864;32;20192;-55
2023/04/06 15:06:13;;;;;;;10.82;6.97;;;10.90;99.90;;;;;;7275118;32;20178;-55
2023/04/06 15:10:15;;;;;;;12.07;7.12;;;10.80;99.90;;;;;;7286868;32;20597;-55
2023/04/06 15:14:16;;;;;;;13.20;8.02;;;10.50;99.90;;;;;;7285003;32;20160;-56
2023/04/06 15:18:18;;;;;;;12.68;7.57;;;10.00;99.90;;;;;;7279092;32;20248;-54
2023/04/06 15:22:20;;;;;;;14.40;7.28;;;9.90;99.90;;;;;;7278829;32;20224;-53
2023/04/06 15:26:22;;;;;;;11.93;7.57;;;10.00;99.90;;;;;;7274759;32;20304;-56
2023/04/06 15:30:24;;;;;;;12.37;6.15;;;9.60;99.90;;;;;;7282239;32;20220;-56
2023/04/06 15:34:30;;;;;;;9.02;5.85;;;9.50;99.90;;;;;;7284255;32;20126;-57
2023/04/06 15:38:32;;;;;;;7.72;5.60;;;9.30;99.90;;;;;;7282126;32;20112;-56
2023/04/06 15:42:34;;;;;;;7.40;5.12;;;9.10;99.90;;;;;;7282874;32;20166;-56
2023/04/06 15:46:35;;;;;;;8.25;5.32;;;9.10;99.90;;;;;;7272349;32;20307;-56
2023/04/06 15:50:37;;;;;;;8.20;5.57;;;9.10;99.90;;;;;;7284094;32;20100;-57
2023/04/06 15:54:40;;;;;;;10.13;6.12;;;8.90;99.90;;;;;;7265386;32;20128;-57
2023/04/06 15:58:41;;;;;;;8.63;5.97;;;8.90;99.90;;;;;;7277108;32;20127;-56
2023/04/06 16:02:43;;;;;;;9.00;5.65;;;8.90;99.90;;;;;;7291673;32;20128;-55
2023/04/06 16:06:45;;;;;;;10.20;5.95;;;8.90;99.90;;;;;;7285428;32;20282;-56
2023/04/06 16:10:48;;;;;;;7.93;5.37;;;8.70;99.90;;;;;;7287896;32;20613;-56
2023/04/06 16:14:50;;;;;;;10.40;6.72;;;8.70;99.90;;;;;;7286047;32;20170;-56
2023/04/06 16:18:52;;;;;;;11.07;6.70;;;8.50;99.90;;;;;;7283303;32;20485;-56
2023/04/06 16:22:53;;;;;;;8.57;6.18;;;8.50;99.90;;;;;;7287094;32;20215;-56
2023/04/06 16:26:56;;;;;;;12.65;7.22;;;8.40;99.90;;;;;;7280289;32;20202;-57
2023/04/06 16:30:58;;;;;;;11.85;7.40;;;8.40;99.90;;;;;;7285432;32;20150;-56
2023/04/06 16:34:59;;;;;;;11.77;7.22;;;8.30;99.90;;;;;;7277313;32;20108;-56
2023/04/06 16:39:01;;;;;;;11.27;7.75;;;8.10;99.90;;;;;;7276199;32;20340;-55
2023/04/06 16:43:04;;;;;;;12.25;7.80;;;8.00;99.90;;;;;;7269046;32;20108;-55
2023/04/06 16:47:06;;;;;;;13.43;8.63;;;8.10;99.90;;;;;;7279009;32;20281;-55
2023/04/06 16:51:08;;;;;;;10.93;7.30;;;8.10;99.90;;;;;;7287202;32;20178;-56
2023/04/06 16:55:10;;;;;;;13.65;8.27;;;8.00;99.90;;;;;;7277536;32;20221;-56
2023/04/06 16:59:12;;;;;;;13.13;9.00;;;8.00;99.90;;;;;;7277551;32;20109;-56
2023/04/06 17:03:14;;;;;;;10.45;7.57;;;8.00;99.90;;;;;;7279640;32;20163;-56
2023/04/06 17:07:16;;;;;;;9.57;7.47;;;8.00;99.90;;;;;;7281200;32;20238;-57
2023/04/06 17:11:18;;;;;;;10.40;7.72;;;7.90;99.90;;;;;;7281069;32;20453;-57
2023/04/06 17:15:30;;;;;;;10.57;8.05;;;7.80;99.90;;;;;;7278787;32;20219;-57
2023/04/06 17:19:32;;;;;;;9.77;7.62;;;7.90;99.90;;;;;;7279266;32;20187;-57
2023/04/06 17:23:34;;;;;;;14.05;9.15;;;8.00;99.90;;;;;;7282415;32;20104;-57
2023/04/06 17:27:36;;;;;;;11.38;8.55;;;7.80;99.90;;;;;;7280763;32;20160;-57
2023/04/06 17:31:38;;;;;;;12.20;9.45;;;7.70;99.90;;;;;;7275132;32;20622;-57
2023/04/06 17:35:41;;;;;;;14.98;9.93;;;7.70;99.90;;;;;;7271776;32;20191;-58
2023/04/06 17:39:43;;;;;;;15.63;9.82;;;7.70;99.90;;;;;;7262985;32;20092;-58
2023/04/06 17:43:45;;;;;;;16.90;9.57;;;7.60;99.90;;;;;;7281978;32;20123;-57
2023/04/06 17:47:47;;;;;;;16.23;10.82;;;7.50;99.90;;;;;;7259677;32;22537;-57
2023/04/06 17:51:49;;;;;;;12.30;9.85;;;7.60;99.90;;;;;;7270269;32;20179;-57
2023/04/06 17:55:51;;;;;;;16.45;10.32;;;7.50;99.90;;;;;;7275132;32;20190;-57
2023/04/06 17:59:53;;;;;;;20.25;11.77;;;7.50;99.90;;;;;;7263440;32;20488;-57
2023/04/06 18:03:55;;;;;;;16.42;10.32;;;7.50;99.90;;;;;;7273757;32;20207;-57
2023/04/06 18:07:56;;;;;;;19.40;11.25;;;7.50;99.90;;;;;;7278097;32;20482;-57
2023/04/06 18:11:58;;;;;;;14.45;10.95;;;7.40;99.90;;;;;;7279706;32;20269;-56
2023/04/06 18:16:00;;;;;;;17.75;11.63;;;7.40;99.90;;;;;;7277858;32;20806;-55
2023/04/06 18:20:03;;;;;;;16.65;10.48;;;7.30;99.90;;;;;;7280803;32;20123;-55
2023/04/06 18:24:05;;;;;;;15.88;10.90;;;7.40;99.90;;;;;;7273060;32;20130;-54
2023/04/06 18:28:08;;;;;;;15.63;11.25;;;7.30;99.90;;;;;;7279811;32;20100;-55
2023/04/06 18:32:09;;;;;;;13.43;10.48;;;7.30;99.90;;;;;;7276133;32;20220;-54
2023/04/06 18:36:13;;;;;;;16.25;10.90;;;7.30;99.90;;;;;;7273489;32;20135;-54
2023/04/06 18:40:34;;;;;;;14.48;11.43;;;7.20;99.90;;;;;;7277185;32;20177;-55
2023/04/06 18:44:36;;;;;;;14.20;11.20;;;7.30;99.90;;;;;;7276733;32;20414;-55
2023/04/06 18:48:38;;;;;;;17.17;10.88;;;7.20;99.90;;;;;;7287106;32;20116;-55
2023/04/06 18:52:40;;;;;;;16.45;11.68;;;7.10;99.90;;;;;;7275984;32;20274;-56
2023/04/06 18:56:42;;;;;;;15.77;10.98;;;7.20;99.90;;;;;;7266123;32;20409;-55
2023/04/06 19:00:44;;;;;;;15.50;12.07;;;7.10;99.90;;;;;;7272341;32;20162;-55
2023/04/06 19:04:46;;;;;;;17.85;12.75;;;7.10;99.90;;;;;;7279729;32;20258;-56
2023/04/06 19:08:48;;;;;;;16.98;12.57;;;7.10;99.90;;;;;;7276293;32;20122;-55
2023/04/06 19:12:50;;;;;;;16.45;12.05;;;7.10;99.90;;;;;;7279961;32;20195;-55
2023/04/06 19:16:52;;;;;;;18.12;12.90;;;7.10;99.90;;;;;;7281391;32;20442;-55
2023/04/06 19:20:54;;;;;;;16.65;12.13;;;7.10;99.90;;;;;;7281421;32;20100;-55
2023/04/06 19:24:55;;;;;;;16.05;12.25;;;7.00;99.90;;;;;;7279147;32;20710;-56
2023/04/06 19:28:57;;;;;;;17.58;12.85;;;7.10;99.90;;;;;;7277487;32;20196;-55
2023/04/06 19:32:59;;;;;;;18.70;13.32;;;7.00;99.90;;;;;;7279235;32;20096;-55
2023/04/06 19:37:01;;;;;;;17.55;13.07;;;6.90;99.90;;;;;;7279730;32;20820;-55
2023/04/06 19:41:03;;;;;;;16.23;12.00;;;7.00;99.90;;;;;;7280656;32;20143;-55
2023/04/06 19:45:06;;;;;;;16.00;11.35;;;6.90;99.90;;;;;;7278931;32;20183;-55
2023/04/06 19:49:07;;;;;;;14.90;11.23;;;6.90;99.90;;;;;;7282381;32;20325;-55
2023/04/06 19:53:09;;;;;;;14.77;11.63;;;7.00;99.90;;;;;;7288125;32;20318;-55
2023/04/06 19:57:12;;;;;;;15.10;11.68;;;6.90;99.90;;;;;;7281504;32;20230;-55
2023/04/06 20:01:14;;;;;;;15.35;11.75;;;6.90;99.90;;;;;;7269121;32;20655;-55
2023/04/06 20:05:16;;;;;;;13.95;11.43;;;6.90;99.90;;;;;;7284211;32;20186;-55
2023/04/06 20:09:18;;;;;;;15.32;12.15;;;6.90;99.90;;;;;;7281269;32;20227;-55
2023/04/06 20:13:20;;;;;;;17.48;12.13;;;6.80;99.90;;;;;;7274810;32;20100;-55
2023/04/06 20:17:22;;;;;;;14.45;11.40;;;6.90;99.90;;;;;;7263136;32;20129;-55
2023/04/06 20:21:24;;;;;;;15.30;11.90;;;6.80;99.90;;;;;;7281468;32;20103;-55
2023/04/06 20:25:26;;;;;;;15.77;11.05;;;6.90;99.90;;;;;;7277288;32;20231;-55
2023/04/06 20:29:28;;;;;;;14.30;11.18;;;6.90;99.90;;;;;;7274595;32;20477;-54
2023/04/06 20:33:30;;;;;;;16.55;11.38;;;6.90;99.90;;;;;;7278215;32;20269;-55
2023/04/06 20:37:33;;;;;;;14.38;11.20;;;6.90;99.90;;;;;;7279984;32;20508;-55
2023/04/06 20:41:35;;;;;;;14.50;10.88;;;6.80;99.90;;;;;;7270783;32;20125;-55
2023/04/06 20:45:37;;;;;;;16.98;11.50;;;6.80;99.90;;;;;;7276917;32;20151;-55
2023/04/06 20:49:39;;;;;;;14.55;10.52;;;6.80;99.90;;;;;;7277939;32;20211;-54